Time;durP1;ratioP1;P1;durP2;ratioP2;P2;SDS_P1;SDS_P2;PMS_P1;PMS_P2;Temp;Humidity;BMP_temperature;BMP_pressure;BME280_temperature;BME280_humidity;BME280_pressure;Samples;Min_cycle;Max_cycle;Signal;HPM_P1;HPM_P2
2022/09/20 10:37:43;;;;;;;;;3.50;2.25;;;;;21.10;35.80;102005.44;5094239;27;45347;-48
2022/09/20 10:43:13;;;;;;;;;1.00;1.00;;;;;21.12;35.57;102010.63;5097013;27;45376;-50
2022/09/20 10:43:22;;;;;;;;;4.00;1.75;;;;;21.11;35.88;102009.78;5102173;27;45302;-51
2022/09/20 10:46:04;;;;;;;;;2.00;2.00;;;;;21.12;35.88;102008.00;5105533;27;45312;-52
2022/09/20 10:48:40;;;;;;;;;2.25;2.25;;;;;21.12;35.98;102002.72;5104015;27;45479;-54
2022/09/20 10:51:54;;;;;;;;;4.75;3.00;;;;;21.13;35.95;102004.44;5100290;27;45211;-51
2022/09/20 10:54:34;;;;;;;;;2.00;2.00;;;;;21.13;35.51;101996.53;5101113;27;45251;-47
2022/09/20 10:57:25;;;;;;;;;3.00;3.00;;;;;21.13;35.59;101997.41;5101216;27;45336;-53
2022/09/20 11:00:19;;;;;;;;;2.00;2.00;;;;;21.14;35.73;101999.13;5104803;27;45542;-52
2022/09/20 11:03:00;;;;;;;;;4.50;3.00;;;;;21.15;35.58;102007.88;5112693;27;45715;-50
2022/09/20 11:05:38;;;;;;;;;2.25;2.25;;;;;21.14;35.39;101998.25;5116165;27;45436;-51
2022/09/20 11:08:12;;;;;;;;;2.00;2.00;;;;;21.15;36.15;101997.34;5121141;27;44680;-52
2022/09/20 11:10:49;;;;;;;;;4.00;2.00;;;;;21.15;35.97;102003.47;5119332;27;46318;-52
2022/09/20 11:13:31;;;;;;;;;3.00;2.00;;;;;21.17;35.73;102003.41;5121162;27;45193;-51
2022/09/20 11:16:24;;;;;;;;;3.00;2.50;;;;;21.17;35.72;102003.41;5112554;27;45408;-51
2022/09/20 11:19:02;;;;;;;;;1.50;1.50;;;;;21.17;35.47;102006.03;5110969;27;45243;-51
2022/09/20 11:21:37;;;;;;;;;3.25;3.00;;;;;21.17;35.30;101995.50;5110319;27;45580;-50
2022/09/20 11:24:15;;;;;;;;;3.00;1.00;;;;;21.18;35.52;102002.50;5108699;27;45377;-53
2022/09/20 11:26:52;;;;;;;;;3.00;1.25;;;;;21.19;35.83;101998.06;5101535;27;45337;-49
2022/09/20 11:29:31;;;;;;;;;3.75;2.00;;;;;21.20;35.75;101999.78;5102094;27;45332;-46
2022/09/20 11:32:06;;;;;;;;;2.50;2.50;;;;;21.21;35.67;101985.69;5100674;27;46269;-49
2022/09/20 11:34:52;;;;;;;;;2.00;2.00;;;;;21.20;36.01;101987.47;5099139;27;45842;-46
2022/09/20 11:37:21;;;;;;;;;2.50;2.50;;;;;21.20;35.75;101987.47;5098839;27;45512;-47
2022/09/20 11:39:54;;;;;;;;;2.00;1.25;;;;;21.22;36.05;101987.41;5100231;27;45443;-47
2022/09/20 11:42:51;;;;;;;;;4.75;2.25;;;;;21.20;35.82;101987.47;5101448;27;46304;-48
2022/09/20 11:45:18;;;;;;;;;2.00;2.00;;;;;21.21;35.68;101986.56;5111404;27;45831;-46
2022/09/20 11:47:46;;;;;;;;;4.00;2.00;;;;;21.23;35.87;101989.13;5108331;27;45152;-47
2022/09/20 11:50:31;;;;;;;;;2.00;2.00;;;;;21.23;35.44;101989.97;5108239;27;45209;-49
2022/09/20 11:53:12;;;;;;;;;4.75;2.00;;;;;21.24;36.06;101985.56;5107912;27;45400;-46
2022/09/20 11:55:43;;;;;;;;;3.00;2.00;;;;;21.23;36.09;101984.69;5100364;27;45400;-49
2022/09/20 11:58:15;;;;;;;;;2.00;2.00;;;;;21.24;35.62;101989.06;5099426;27;45314;-47
2022/09/20 12:00:44;;;;;;;;;4.00;2.00;;;;;21.24;35.57;101985.56;5098124;27;45297;-48
2022/09/20 12:03:34;;;;;;;;;2.75;2.25;;;;;21.24;36.05;101989.06;5098973;27;45444;-46
2022/09/20 12:06:07;;;;;;;;;3.00;2.50;;;;;21.23;35.88;101987.34;5098814;27;45282;-46
2022/09/20 12:08:36;;;;;;;;;2.75;1.75;;;;;21.24;35.71;101988.22;5105661;27;45323;-46
2022/09/20 12:11:09;;;;;;;;;1.25;0.00;;;;;21.24;35.93;101985.56;5111969;27;45161;-50
2022/09/20 12:13:37;;;;;;;;;2.00;2.00;;;;;21.24;35.72;101983.78;5102376;27;45461;-46
2022/09/20 12:16:03;;;;;;;;;5.00;2.00;;;;;21.24;36.05;101986.41;5115138;27;45846;-47
2022/09/20 12:18:34;;;;;;;;;2.00;2.00;;;;;21.24;35.42;101978.50;5098637;27;45217;-49
2022/09/20 12:21:11;;;;;;;;;4.00;2.00;;;;;21.25;35.82;101979.38;5077935;28;45585;-48
2022/09/20 12:23:37;;;;;;;;;3.75;2.00;;;;;21.25;35.45;101982.03;5078253;28;46770;-48
2022/09/20 12:26:02;;;;;;;;;2.00;2.00;;;;;21.25;35.76;101980.22;5078097;28;45389;-48
2022/09/20 12:28:36;;;;;;;;;4.00;2.67;;;;;21.25;35.76;101980.22;5078711;28;45879;-46
2022/09/20 12:31:37;;;;;;;;;3.00;3.00;;;;;21.25;35.69;101972.31;5078117;28;45179;-47
2022/09/20 12:34:25;;;;;;;;;1.75;1.75;;;;;21.22;35.85;101967.16;5063183;27;46186;-46
2022/09/20 12:36:54;;;;;;;;;1.75;1.75;;;;;21.24;35.70;101970.59;5110639;27;45905;-47
2022/09/20 12:39:26;;;;;;;;;2.75;2.50;;;;;21.25;35.63;101967.03;5102288;27;45337;-49
2022/09/20 12:42:00;;;;;;;;;2.00;2.00;;;;;21.26;35.85;101970.56;5098803;27;45340;-48
2022/09/20 12:44:28;;;;;;;;;2.00;2.00;;;;;21.26;36.02;101973.19;5099206;27;45388;-47
2022/09/20 12:46:56;;;;;;;;;2.50;2.50;;;;;21.25;35.50;101972.31;5099355;27;45838;-48
2022/09/20 12:55:53;;;;;;;;;2.50;2.00;;;;;21.26;35.62;101971.41;5106138;27;45802;-46
2022/09/20 12:58:45;;;;;;;;;2.75;2.75;;;;;21.25;35.91;101961.78;5121657;27;45221;-49
2022/09/20 13:01:10;;;;;;;;;3.25;3.00;;;;;21.26;35.57;101963.50;5119934;27;45186;-50
2022/09/20 13:03:37;;;;;;;;;3.67;2.00;;;;;21.26;35.73;101962.66;5120405;27;45162;-51
2022/09/20 13:06:05;;;;;;;;;1.50;1.50;;;;;21.26;35.66;101955.59;5106367;27;46428;-53
2022/09/20 13:08:51;;;;;;;;;3.00;3.00;;;;;21.26;35.70;101957.38;5100617;27;45259;-50
2022/09/20 13:11:22;;;;;;;;;2.00;2.00;;;;;21.26;35.88;101957.38;5106206;27;45163;-53
2022/09/20 13:13:50;;;;;;;;;4.00;2.00;;;;;21.26;35.85;101955.59;5102166;27;45403;-51
2022/09/20 13:16:25;;;;;;;;;3.00;3.00;;;;;21.25;35.65;101953.84;5101969;27;46553;-52
2022/09/20 13:19:00;;;;;;;;;2.00;2.00;;;;;21.25;36.28;101948.59;5097662;27;45394;-50
2022/09/20 13:21:27;;;;;;;;;3.00;3.00;;;;;21.26;35.84;101952.09;5098302;27;45465;-48
2022/09/20 13:23:54;;;;;;;;;2.50;2.50;;;;;21.26;35.85;101950.31;5097833;27;45408;-49
2022/09/20 13:26:28;;;;;;;;;2.00;2.00;;;;;21.27;36.22;101944.13;5097744;27;46600;-48
2022/09/20 13:28:57;;;;;;;;;2.25;2.25;;;;;21.28;35.85;101945.84;5097911;27;45897;-49
2022/09/20 13:31:25;;;;;;;;;3.25;1.75;;;;;21.29;35.78;101941.41;5097069;27;45303;-49
2022/09/20 13:33:50;;;;;;;;;2.00;2.00;;;;;21.29;36.22;101937.00;5097085;27;45317;-48
2022/09/20 13:36:29;;;;;;;;;2.00;2.00;;;;;21.29;36.27;101931.72;5098509;27;45432;-47
2022/09/20 13:38:55;;;;;;;;;1.50;1.50;;;;;21.30;36.00;101933.44;5113344;27;45763;-46
2022/09/20 13:41:21;;;;;;;;;2.00;2.00;;;;;21.33;35.87;101936.88;5116447;27;45259;-49
2022/09/20 13:43:49;;;;;;;;;1.50;1.25;;;;;21.33;36.15;101936.88;5116544;27;44798;-50
2022/09/20 13:46:24;;;;;;;;;3.75;1.00;;;;;21.33;35.87;101931.63;5115240;27;45554;-49
2022/09/20 13:49:08;;;;;;;;;3.00;3.00;;;;;21.33;36.13;101931.63;5114525;27;45599;-50
2022/09/20 13:51:34;;;;;;;;;2.00;2.00;;;;;21.33;35.90;101928.97;5116003;27;44682;-50
2022/09/20 13:54:26;;;;;;;;;2.50;2.00;;;;;21.34;35.99;101933.31;5114035;27;44768;-47
2022/09/20 13:56:53;;;;;;;;;1.50;1.50;;;;;21.31;35.82;101923.75;5108830;27;45498;-52
2022/09/20 13:59:18;;;;;;;;;4.00;3.00;;;;;21.33;36.25;101919.28;5114119;27;45271;-49
2022/09/20 14:01:49;;;;;;;;;2.00;2.00;;;;;21.33;35.66;101921.91;5113046;27;45224;-52
2022/09/20 14:04:20;;;;;;;;;2.00;2.00;;;;;21.34;36.06;101923.63;5114424;27;45203;-50
2022/09/20 14:06:49;;;;;;;;;2.00;2.00;;;;;21.34;36.09;101917.47;5101142;27;46493;-47
2022/09/20 14:09:25;;;;;;;;;3.50;2.00;;;;;21.35;35.78;101913.94;5108024;27;45236;-50
2022/09/20 14:11:51;;;;;;;;;3.50;2.75;;;;;21.34;36.05;101913.09;5109023;27;45278;-51
2022/09/20 14:14:18;;;;;;;;;2.00;2.00;;;;;21.35;36.14;101908.66;5108864;27;45448;-48
2022/09/20 14:16:45;;;;;;;;;1.00;1.00;;;;;21.35;36.05;101908.66;5112936;27;46763;-50
2022/09/20 14:19:14;;;;;;;;;2.00;2.00;;;;;21.35;36.28;101909.53;5115145;27;45086;-51
2022/09/20 14:21:42;;;;;;;;;2.00;2.00;;;;;21.35;35.96;101913.94;5121303;27;45184;-45
2022/09/20 14:24:25;;;;;;;;;2.25;1.25;;;;;21.35;36.12;101903.38;5120372;27;44819;-48
2022/09/20 14:27:16;;;;;;;;;1.75;1.75;;;;;21.35;36.01;101892.81;5121771;27;46213;-49
2022/09/20 14:29:47;;;;;;;;;3.00;1.25;;;;;21.35;36.15;101904.25;5114010;27;45266;-50
2022/09/20 14:32:18;;;;;;;;;3.00;2.00;;;;;21.35;35.89;101903.38;5110040;27;45904;-53
2022/09/20 14:34:46;;;;;;;;;1.50;1.00;;;;;21.36;36.37;101902.44;5097610;27;45374;-49
2022/09/20 14:37:24;;;;;;;;;1.25;1.25;;;;;21.35;36.21;101898.09;5097857;27;46062;-46
2022/09/20 14:39:55;;;;;;;;;1.25;1.25;;;;;21.35;36.19;101906.00;5096946;27;45841;-48
2022/09/20 14:42:26;;;;;;;;;2.50;1.75;;;;;21.34;36.00;101899.03;5100734;27;45192;-52
2022/09/20 14:44:52;;;;;;;;;1.00;1.00;;;;;21.34;36.34;101896.38;5102696;27;45263;-48
2022/09/20 14:47:51;;;;;;;;;1.50;1.50;;;;;21.33;36.16;101899.97;5103178;27;46659;-49
2022/09/20 14:50:43;;;;;;;;;1.00;1.00;;;;;21.33;36.24;101895.53;5099044;27;45474;-50
2022/09/20 14:53:09;;;;;;;;;2.50;2.50;;;;;21.33;35.99;101897.34;5099286;27;45290;-50
2022/09/20 14:55:36;;;;;;;;;1.00;1.00;;;;;21.31;36.23;101890.34;5099389;27;45330;-48
2022/09/20 14:58:23;;;;;;;;;1.50;1.50;;;;;21.32;36.06;101888.56;5108700;27;46509;-48
2022/09/20 15:01:01;;;;;;;;;1.00;1.00;;;;;21.31;36.21;101887.69;5106737;27;45815;-50
2022/09/20 15:03:32;;;;;;;;;2.75;2.75;;;;;21.31;36.14;101889.47;5100798;27;45459;-48
2022/09/20 15:05:58;;;;;;;;;3.00;2.00;;;;;21.33;36.18;101886.78;5098182;27;45413;-46
2022/09/20 15:08:24;;;;;;;;;2.00;1.00;;;;;21.33;36.03;101881.50;5098417;27;47335;-46
2022/09/20 15:10:50;;;;;;;;;1.00;1.00;;;;;21.31;36.08;101879.78;5100487;27;45376;-48
2022/09/20 15:13:15;;;;;;;;;1.75;1.00;;;;;21.33;36.07;101889.44;5096247;27;45402;-46
2022/09/20 15:15:43;;;;;;;;;2.00;2.00;;;;;21.33;36.32;101884.16;5098529;27;45623;-47
2022/09/20 15:18:20;;;;;;;;;4.00;2.00;;;;;21.31;36.20;101878.91;5101517;27;45397;-49
2022/09/20 15:20:45;;;;;;;;;2.00;1.00;;;;;21.31;35.88;101881.56;5096345;27;45338;-51
2022/09/20 15:23:11;;;;;;;;;4.75;1.75;;;;;21.32;36.20;101883.28;5096335;27;45223;-46
2022/09/20 15:25:36;;;;;;;;;2.00;2.00;;;;;21.32;36.40;101875.38;5096250;27;45546;-47
2022/09/20 15:28:02;;;;;;;;;1.50;1.50;;;;;21.33;36.31;101874.44;5095310;27;47309;-48
2022/09/20 15:30:29;;;;;;;;;2.00;2.00;;;;;21.30;36.01;101870.16;5096236;27;46017;-47
2022/09/20 15:32:54;;;;;;;;;1.50;1.50;;;;;21.33;36.53;101873.59;5094883;27;45871;-46
2022/09/20 15:35:19;;;;;;;;;2.00;2.00;;;;;21.31;36.39;101877.16;5096814;27;45728;-48
2022/09/20 15:37:45;;;;;;;;;3.00;2.00;;;;;21.31;36.36;101871.00;5099166;27;48114;-45
2022/09/20 15:40:10;;;;;;;;;2.00;2.00;;;;;21.31;35.97;101868.38;5100200;27;45504;-51
2022/09/20 15:42:36;;;;;;;;;1.25;1.25;;;;;21.33;36.20;101873.59;5100304;27;45744;-49
2022/09/20 15:45:07;;;;;;;;;2.00;2.00;;;;;21.30;36.15;101870.16;5100674;27;45496;-48
2022/09/20 15:47:35;;;;;;;;;3.00;2.00;;;;;21.31;35.88;101871.88;5099720;27;46585;-49
2022/09/20 15:50:02;;;;;;;;;3.25;2.00;;;;;21.31;36.41;101877.16;5099268;27;45482;-45
2022/09/20 15:52:33;;;;;;;;;3.25;2.00;;;;;21.31;36.36;101876.28;5099678;27;45346;-49
2022/09/20 15:54:59;;;;;;;;;3.75;2.00;;;;;21.31;36.41;101876.28;5099204;27;45290;-50
2022/09/20 15:57:25;;;;;;;;;2.00;2.00;;;;;21.30;36.53;101871.94;5098623;27;47676;-50
2022/09/20 15:59:51;;;;;;;;;1.50;1.50;;;;;21.28;36.31;101873.75;5098785;27;45680;-50
2022/09/20 16:02:16;;;;;;;;;1.25;1.25;;;;;21.30;36.52;101885.13;5097611;27;57358;-50
2022/09/20 16:04:41;;;;;;;;;2.00;2.00;;;;;21.29;36.52;101881.63;5099087;27;45368;-49
2022/09/20 16:07:09;;;;;;;;;1.75;1.75;;;;;21.28;36.09;101886.94;5098447;27;54998;-47
2022/09/20 16:09:34;;;;;;;;;2.00;2.00;;;;;21.30;36.43;101891.25;5101548;27;45328;-50
2022/09/20 16:12:00;;;;;;;;;1.25;1.00;;;;;21.29;36.43;101879.00;5110733;27;45273;-49
2022/09/20 16:14:26;;;;;;;;;1.00;1.00;;;;;21.28;36.37;101879.91;5106247;27;45326;-51
2022/09/20 16:16:51;;;;;;;;;1.00;1.00;;;;;21.27;36.77;101891.38;5101573;27;46468;-46
2022/09/20 16:19:16;;;;;;;;;1.00;1.00;;;;;21.29;36.68;101888.66;5098496;27;45352;-46
2022/09/20 16:21:48;;;;;;;;;1.75;1.75;;;;;21.30;36.38;101888.63;5114748;27;45386;-48
2022/09/20 16:24:14;;;;;;;;;4.00;2.00;;;;;21.30;36.14;101882.47;5099136;27;45398;-47
2022/09/20 16:26:40;;;;;;;;;2.00;2.00;;;;;21.30;36.40;101887.75;5098315;27;47078;-46
2022/09/20 16:29:10;;;;;;;;;1.00;1.00;;;;;21.29;36.61;101891.31;5098821;27;45317;-47
2022/09/20 16:31:46;;;;;;;;;4.00;2.00;;;;;21.29;36.15;101891.31;5099528;27;45329;-47
2022/09/20 16:34:15;;;;;;;;;2.00;2.00;;;;;21.28;36.63;101893.09;5103255;27;45452;-48
2022/09/20 16:36:42;;;;;;;;;1.00;1.00;;;;;21.27;36.64;101888.75;5110370;27;46415;-49
2022/09/20 16:39:07;;;;;;;;;3.00;3.00;;;;;21.28;36.79;101890.47;5104190;27;45302;-47
2022/09/20 16:41:33;;;;;;;;;1.25;1.25;;;;;21.27;36.37;101895.81;5100697;27;45387;-48
2022/09/20 16:43:58;;;;;;;;;1.00;1.00;;;;;21.28;36.51;101898.38;5098532;27;45530;-48
2022/09/20 16:46:27;;;;;;;;;2.00;2.00;;;;;21.29;36.49;101893.94;5098834;27;46002;-49
2022/09/20 16:48:54;;;;;;;;;3.00;1.75;;;;;21.25;36.88;101893.22;5097544;27;45274;-46
2022/09/20 16:51:24;;;;;;;;;2.00;2.00;;;;;21.28;36.48;101889.59;5098069;27;45329;-47
2022/09/20 16:53:54;;;;;;;;;2.00;2.00;;;;;21.27;36.63;101899.28;5097985;27;45463;-47
2022/09/20 16:56:22;;;;;;;;;2.25;2.25;;;;;21.27;36.29;101901.09;5097633;27;46802;-47
2022/09/20 16:58:48;;;;;;;;;2.00;2.00;;;;;21.26;36.61;101894.94;5097228;27;45372;-47
2022/09/20 17:01:15;;;;;;;;;2.00;2.00;;;;;21.27;36.29;101904.56;5097117;27;45507;-50
2022/09/20 17:03:40;;;;;;;;;2.00;2.00;;;;;21.27;36.86;101901.09;5097814;27;45334;-51
2022/09/20 17:06:07;;;;;;;;;2.00;2.00;;;;;21.26;36.43;101910.75;5097911;27;46348;-48
2022/09/20 17:08:39;;;;;;;;;2.00;2.00;;;;;21.26;36.76;101908.13;5097961;27;45749;-50
2022/09/20 17:11:08;;;;;;;;;1.00;1.00;;;;;21.27;36.54;101906.34;5097633;27;45346;-46
2022/09/20 17:13:40;;;;;;;;;2.25;2.25;;;;;21.26;36.37;101902.00;5096989;27;45568;-49
2022/09/20 17:16:12;;;;;;;;;2.00;2.00;;;;;21.26;36.64;101900.22;5096777;27;46650;-47
2022/09/20 17:18:40;;;;;;;;;2.25;2.00;;;;;21.26;36.65;101900.22;5097553;27;45471;-50
2022/09/20 17:21:14;;;;;;;;;2.00;2.00;;;;;21.25;36.39;101901.13;5097555;27;45412;-48
2022/09/20 17:23:44;;;;;;;;;2.00;2.00;;;;;21.25;36.55;101898.50;5097729;27;45573;-46
2022/09/20 17:26:18;;;;;;;;;2.25;2.25;;;;;21.25;36.67;101897.66;5096207;27;47641;-49
2022/09/20 17:28:46;;;;;;;;;1.00;1.00;;;;;21.25;36.92;101902.91;5097172;27;45243;-51
2022/09/20 17:31:15;;;;;;;;;2.50;2.50;;;;;21.25;36.70;101901.13;5096587;27;45442;-49
2022/09/20 17:33:41;;;;;;;;;2.00;2.00;;;;;21.25;36.56;101908.19;5102597;27;45475;-48
2022/09/20 17:36:11;;;;;;;;;2.00;2.00;;;;;21.24;36.87;101904.69;5103150;27;45543;-48
2022/09/20 17:38:37;;;;;;;;;2.25;2.00;;;;;21.24;36.46;101903.84;5106112;27;45658;-47
2022/09/20 17:41:22;;;;;;;;;1.25;1.25;;;;;21.23;36.75;101910.88;5103374;27;45280;-50
2022/09/20 17:43:55;;;;;;;;;2.00;2.00;;;;;21.23;36.90;101910.03;5097576;27;45378;-48
2022/09/20 17:46:28;;;;;;;;;4.25;3.00;;;;;21.24;36.79;101915.22;5096085;27;46802;-49
2022/09/20 17:48:56;;;;;;;;;2.00;1.50;;;;;21.23;36.64;101907.41;5096606;27;45823;-49
2022/09/20 17:51:24;;;;;;;;;2.50;2.50;;;;;21.23;36.95;101917.94;5097765;27;45428;-48
2022/09/20 17:53:51;;;;;;;;;2.75;2.50;;;;;21.23;36.78;101924.06;5097300;27;45507;-51
2022/09/20 17:56:17;;;;;;;;;2.25;2.25;;;;;21.21;36.71;101918.00;5104861;27;45544;-48
2022/09/20 17:58:43;;;;;;;;;2.00;2.00;;;;;21.20;36.72;101916.28;5096938;27;45428;-47
2022/09/20 18:01:16;;;;;;;;;3.00;3.00;;;;;21.20;36.99;101918.06;5096404;27;45300;-51
2022/09/20 18:03:45;;;;;;;;;2.75;2.75;;;;;21.21;37.05;101915.38;5097082;27;45588;-49
2022/09/20 18:06:14;;;;;;;;;3.00;2.00;;;;;21.21;36.93;101918.00;5099244;27;47082;-48
2022/09/20 18:08:43;;;;;;;;;1.00;1.00;;;;;21.21;36.91;101928.56;5098495;27;45411;-52
2022/09/20 18:11:09;;;;;;;;;4.00;3.00;;;;;21.22;36.65;101924.13;5097438;27;45288;-49
2022/09/20 18:13:35;;;;;;;;;2.00;2.00;;;;;21.20;36.97;101921.56;5097611;27;45249;-48
2022/09/20 18:16:00;;;;;;;;;3.00;2.00;;;;;21.21;37.06;101923.28;5110146;27;46399;-50
2022/09/20 18:18:26;;;;;;;;;2.00;2.00;;;;;21.21;36.73;101922.41;5096457;27;45325;-49
2022/09/20 18:20:51;;;;;;;;;2.00;2.00;;;;;21.20;37.17;101926.84;5097289;27;45339;-53
2022/09/20 18:23:16;;;;;;;;;3.00;2.00;;;;;21.20;36.92;101923.31;5099391;27;45682;-54
2022/09/20 18:28:25;;;;;;;;;3.25;3.25;;;;;21.20;37.09;101934.75;5097891;27;45907;-49
2022/09/20 18:31:09;;;;;;;;;3.75;3.00;;;;;21.19;36.99;101935.66;5096701;27;45479;-50
2022/09/20 18:33:35;;;;;;;;;3.00;3.00;;;;;21.20;36.90;101936.50;5098397;27;45416;-51
2022/09/20 18:36:03;;;;;;;;;2.00;2.00;;;;;21.19;37.14;101933.03;5097660;27;46467;-52
2022/09/20 18:38:29;;;;;;;;;4.00;3.00;;;;;21.19;36.96;101935.66;5101273;27;45848;-52
2022/09/20 18:40:59;;;;;;;;;2.00;2.00;;;;;21.19;36.79;101934.78;5109685;27;45427;-52
2022/09/20 18:43:26;;;;;;;;;2.75;2.75;;;;;21.19;37.21;101935.66;5114336;27;44818;-53
2022/09/20 18:45:53;;;;;;;;;2.75;2.75;;;;;21.17;37.05;101932.22;5115234;27;45508;-50
2022/09/20 18:48:19;;;;;;;;;3.25;3.25;;;;;21.19;36.99;101946.22;5117553;27;45133;-49
2022/09/20 18:51:03;;;;;;;;;2.00;2.00;;;;;21.19;37.14;101940.94;5118014;27;44696;-54
2022/09/20 18:53:36;;;;;;;;;2.00;2.00;;;;;21.17;37.02;101938.34;5118394;27;45412;-52
2022/09/20 18:56:06;;;;;;;;;3.00;1.75;;;;;21.19;37.05;101951.50;5110583;27;46266;-48
2022/09/20 18:58:32;;;;;;;;;2.75;2.00;;;;;21.19;36.85;101940.06;5122144;27;45399;-52
2022/09/20 19:01:23;;;;;;;;;2.00;2.00;;;;;21.19;37.19;101946.22;5107738;27;45310;-52
2022/09/20 19:04:06;;;;;;;;;3.00;3.00;;;;;21.19;37.33;101951.50;5108089;27;45331;-51
2022/09/20 19:06:47;;;;;;;;;2.50;2.50;;;;;21.17;37.25;101946.25;5104112;27;45500;-47
2022/09/20 19:09:39;;;;;;;;;2.25;2.00;;;;;21.18;36.94;101949.78;5115458;27;45191;-50
2022/09/20 19:12:40;;;;;;;;;3.00;2.75;;;;;21.18;36.86;101960.31;5114868;27;45329;-54
2022/09/20 19:15:33;;;;;;;;;2.00;2.00;;;;;21.19;36.79;101955.88;5117725;27;45232;-52
2022/09/20 19:18:05;;;;;;;;;3.00;3.00;;;;;21.19;37.05;101951.50;5106877;27;45454;-53
2022/09/20 19:20:46;;;;;;;;;2.50;2.50;;;;;21.16;36.89;101960.38;5101803;27;45312;-47
2022/09/20 19:23:49;;;;;;;;;2.00;2.00;;;;;21.17;37.14;101954.16;5100515;27;45379;-49
2022/09/20 19:26:26;;;;;;;;;2.75;2.75;;;;;21.18;37.30;101962.94;5100181;27;45276;-46
2022/09/20 19:28:58;;;;;;;;;3.75;3.00;;;;;21.17;37.32;101964.72;5098929;27;45949;-51
2022/09/20 19:31:23;;;;;;;;;3.00;3.00;;;;;21.17;37.17;101969.13;5099962;27;45245;-48
2022/09/20 19:33:55;;;;;;;;;4.00;2.75;;;;;21.17;37.42;101958.59;5100557;27;45255;-49
2022/09/20 19:36:45;;;;;;;;;3.00;3.00;;;;;21.18;36.91;101962.94;5101961;27;45368;-50
2022/09/20 19:39:24;;;;;;;;;3.75;3.75;;;;;21.17;37.27;101964.72;5070410;27;45492;-49
2022/09/20 19:42:12;;;;;;;;;3.50;3.50;;;;;21.17;37.31;101963.88;5118524;27;45156;-47
2022/09/20 19:45:03;;;;;;;;;4.50;4.00;;;;;21.17;37.02;101969.13;5118644;27;45303;-47
2022/09/20 19:47:33;;;;;;;;;2.00;2.00;;;;;21.17;37.50;101974.41;5117048;27;45441;-51
2022/09/20 19:50:26;;;;;;;;;4.50;4.50;;;;;21.17;37.26;101975.25;5102936;27;46394;-49
2022/09/20 19:52:52;;;;;;;;;5.00;4.00;;;;;21.17;37.44;101977.06;5099674;27;45257;-49
2022/09/20 19:55:19;;;;;;;;;3.00;3.00;;;;;21.17;37.25;101984.97;5099653;27;45346;-50
2022/09/20 19:57:45;;;;;;;;;6.00;3.00;;;;;21.15;37.20;101979.75;5098041;27;45522;-47
2022/09/20 20:00:17;;;;;;;;;3.50;3.50;;;;;21.16;37.53;101985.88;5101646;27;45535;-48
2022/09/20 20:02:43;;;;;;;;;2.00;2.00;;;;;21.16;37.58;101980.59;5098823;27;45437;-46
2022/09/20 20:05:17;;;;;;;;;3.50;3.50;;;;;21.17;37.30;101984.97;5100621;27;45377;-46
2022/09/20 20:07:54;;;;;;;;;3.00;3.00;;;;;21.16;37.13;101988.50;5099806;27;45331;-46
2022/09/20 20:10:53;;;;;;;;;6.00;4.00;;;;;21.15;37.18;101984.16;5100381;27;45427;-47
2022/09/20 20:14:03;;;;;;;;;3.25;3.00;;;;;21.16;37.57;101985.88;5100732;27;45995;-50
2022/09/20 20:17:06;;;;;;;;;3.00;3.00;;;;;21.15;37.49;101986.78;5111188;27;45365;-46
2022/09/20 20:19:46;;;;;;;;;4.25;4.00;;;;;21.14;37.08;101985.94;5116757;27;44795;-49
2022/09/20 20:22:21;;;;;;;;;4.00;4.00;;;;;21.13;37.30;101973.69;5110041;27;46661;-50
2022/09/20 20:24:51;;;;;;;;;4.50;4.00;;;;;21.14;37.10;101983.31;5103669;27;45682;-50
2022/09/20 20:27:18;;;;;;;;;3.00;3.00;;;;;21.13;37.66;101984.22;5102350;27;45327;-49
2022/09/20 20:29:43;;;;;;;;;4.50;4.50;;;;;21.14;37.68;101983.31;5098698;27;45619;-50
2022/09/20 20:32:09;;;;;;;;;6.00;4.00;;;;;21.13;37.08;101989.50;5099494;27;46506;-47
2022/09/20 20:34:36;;;;;;;;;5.25;3.75;;;;;21.15;37.13;101992.06;5101038;27;45211;-52
2022/09/20 20:37:02;;;;;;;;;4.00;4.00;;;;;21.14;37.38;101990.34;5104219;27;45219;-46
2022/09/20 20:39:28;;;;;;;;;2.75;2.75;;;;;21.14;37.20;101990.34;5108265;27;45456;-47
2022/09/20 20:41:54;;;;;;;;;4.00;4.00;;;;;21.14;37.72;101992.97;5099157;27;45727;-48
2022/09/20 20:44:20;;;;;;;;;3.75;3.75;;;;;21.14;37.72;101992.97;5097699;27;45467;-46
2022/09/20 20:46:46;;;;;;;;;4.00;3.00;;;;;21.15;37.20;101989.44;5098216;27;45404;-50
2022/09/20 20:49:11;;;;;;;;;3.25;3.25;;;;;21.14;37.59;101985.06;5099778;27;45468;-49
2022/09/20 20:51:37;;;;;;;;;4.00;4.00;;;;;21.13;37.41;101980.72;5101142;27;45364;-49
2022/09/20 20:54:03;;;;;;;;;4.00;4.00;;;;;21.12;37.69;101982.50;5099191;27;45368;-47
2022/09/20 20:56:30;;;;;;;;;4.75;4.00;;;;;21.12;37.46;101985.16;5099734;27;45184;-49
2022/09/20 20:59:00;;;;;;;;;6.00;5.00;;;;;21.14;37.33;101985.06;5109326;27;45242;-49
2022/09/20 21:01:34;;;;;;;;;4.50;4.00;;;;;21.14;37.67;101987.72;5118167;27;45533;-51
2022/09/20 21:04:04;;;;;;;;;4.75;4.75;;;;;21.14;37.40;101985.06;5105316;27;45917;-51
2022/09/20 21:06:35;;;;;;;;;2.00;2.00;;;;;21.14;37.40;101988.59;5100121;27;45197;-53
2022/09/20 21:09:01;;;;;;;;;4.25;4.25;;;;;21.14;37.94;101990.34;5099847;27;45473;-48
2022/09/20 21:11:29;;;;;;;;;4.75;4.75;;;;;21.13;37.17;101989.50;5097233;27;47351;-53
2022/09/20 21:13:57;;;;;;;;;4.50;4.00;;;;;21.12;37.31;101993.06;5097473;27;45768;-50
2022/09/20 21:16:28;;;;;;;;;6.25;4.00;;;;;21.13;37.65;101996.53;5097826;27;45303;-50
2022/09/20 21:18:54;;;;;;;;;6.25;5.00;;;;;21.13;37.61;101993.91;5098107;27;45422;-52
2022/09/20 21:21:21;;;;;;;;;5.25;4.50;;;;;21.14;37.83;101995.63;5097936;27;47191;-49
2022/09/20 21:23:49;;;;;;;;;4.00;4.00;;;;;21.12;37.43;101990.41;5097400;27;45300;-53
2022/09/20 21:26:15;;;;;;;;;4.00;4.00;;;;;21.11;37.82;101987.84;5097831;27;45676;-49
2022/09/20 21:28:48;;;;;;;;;5.50;5.50;;;;;21.13;37.73;102001.81;5097183;27;45428;-47
2022/09/20 21:31:14;;;;;;;;;3.25;3.00;;;;;21.10;37.61;101992.25;5097519;27;46238;-47
2022/09/20 21:33:41;;;;;;;;;6.00;6.00;;;;;21.12;37.76;101998.31;5096248;27;45322;-46
2022/09/20 21:36:08;;;;;;;;;7.00;6.25;;;;;21.11;37.89;101993.13;5097946;27;45457;-46
2022/09/20 21:38:35;;;;;;;;;4.00;4.00;;;;;21.13;37.83;102001.81;5097792;27;45377;-50
2022/09/20 21:41:10;;;;;;;;;7.50;6.00;;;;;21.11;37.70;101995.75;5095405;27;47535;-50
2022/09/20 21:43:40;;;;;;;;;5.00;5.00;;;;;21.12;37.35;101997.44;5096544;27;45542;-50
2022/09/20 21:46:12;;;;;;;;;6.25;6.25;;;;;21.11;37.28;101996.59;5097617;27;45448;-49
2022/09/20 21:48:38;;;;;;;;;4.50;4.50;;;;;21.12;37.74;102005.34;5098250;27;45395;-47
2022/09/20 21:51:05;;;;;;;;;6.00;5.50;;;;;21.11;37.34;102006.31;5095632;27;46343;-49
2022/09/20 21:53:32;;;;;;;;;5.00;5.00;;;;;21.11;37.43;101998.41;5098339;27;45396;-48
2022/09/20 21:56:00;;;;;;;;;5.25;5.00;;;;;21.12;37.70;102006.22;5113768;27;45202;-48
2022/09/20 21:58:26;;;;;;;;;4.75;4.75;;;;;21.12;37.50;102002.72;5096830;27;45462;-47
2022/09/20 22:00:58;;;;;;;;;5.00;5.00;;;;;21.11;37.89;102003.66;5097282;27;45501;-47
2022/09/20 22:03:24;;;;;;;;;5.50;5.25;;;;;21.12;37.21;102002.72;5096806;27;45986;-48
2022/09/20 22:05:49;;;;;;;;;9.00;6.00;;;;;21.10;37.51;102000.16;5097148;27;45321;-48
2022/09/20 22:08:14;;;;;;;;;5.00;5.00;;;;;21.11;37.81;101998.41;5097618;27;45438;-53
2022/09/20 22:10:40;;;;;;;;;8.00;6.00;;;;;21.11;37.69;102001.88;5096872;27;45592;-48
2022/09/20 22:13:06;;;;;;;;;6.33;6.33;;;;;21.12;37.54;102000.09;5096364;27;53397;-46
2022/09/20 22:15:31;;;;;;;;;6.50;6.00;;;;;21.10;37.61;101997.53;5097335;27;45237;-46
2022/09/20 22:17:57;;;;;;;;;5.00;5.00;;;;;21.09;37.49;102005.50;5096817;27;45583;-47
2022/09/20 22:20:22;;;;;;;;;5.00;5.00;;;;;21.09;37.75;102005.50;5096441;27;46001;-46
2022/09/20 22:22:47;;;;;;;;;7.25;5.50;;;;;21.10;37.41;102012.50;5096627;27;45311;-46
2022/09/20 22:25:12;;;;;;;;;3.33;3.33;;;;;21.10;37.47;102009.84;5096646;27;47673;-49
2022/09/20 22:27:38;;;;;;;;;3.25;3.25;;;;;21.10;37.77;102009.84;5096657;27;45626;-46
2022/09/20 22:30:04;;;;;;;;;3.50;3.00;;;;;21.09;37.54;102002.88;5096346;27;47277;-49
2022/09/20 22:32:29;;;;;;;;;7.00;6.50;;;;;21.09;37.64;102003.72;5096633;27;45305;-49